createdAt,value
2017-06-25T00:01:47.016Z,7.50
2017-06-25T00:04:15.099Z,7.20
2017-06-25T00:06:43.179Z,7.83
2017-06-25T00:09:11.269Z,8.00
2017-06-25T00:11:39.356Z,7.03
2017-06-25T00:14:07.450Z,7.20
2017-06-25T00:16:35.529Z,7.13
2017-06-25T00:19:03.636Z,7.33
2017-06-25T00:21:31.715Z,7.17
2017-06-25T00:23:59.799Z,7.70
2017-06-25T00:26:27.895Z,6.50
2017-06-25T00:28:55.969Z,7.13
2017-06-25T00:31:24.051Z,6.50
2017-06-25T00:33:52.137Z,7.33
2017-06-25T00:36:20.214Z,7.37
2017-06-25T00:38:48.304Z,7.87
2017-06-25T00:41:16.413Z,7.50
2017-06-25T00:43:44.492Z,7.20
2017-06-25T00:46:12.567Z,8.27
2017-06-25T00:48:40.650Z,8.93
2017-06-25T00:51:08.719Z,8.07
2017-06-25T00:53:42.347Z,8.90
2017-06-25T00:56:10.419Z,8.00
2017-06-25T00:58:38.502Z,7.60
2017-06-25T01:01:06.590Z,8.30
2017-06-25T01:03:34.679Z,8.00
2017-06-25T01:06:02.770Z,8.47
2017-06-25T01:08:30.872Z,8.33
2017-06-25T01:10:58.951Z,8.10
2017-06-25T01:13:27.019Z,7.20
2017-06-25T01:15:55.111Z,8.20
2017-06-25T01:18:23.184Z,7.77
2017-06-25T01:20:51.267Z,8.47
2017-06-25T01:23:19.356Z,8.33
2017-06-25T01:25:47.447Z,8.00
2017-06-25T01:28:15.531Z,8.23
2017-06-25T01:30:43.638Z,8.60
2017-06-25T01:33:11.708Z,8.20
2017-06-25T01:35:39.800Z,7.70
2017-06-25T01:38:07.880Z,7.10
2017-06-25T01:40:35.968Z,7.00
2017-06-25T01:43:04.063Z,8.03
2017-06-25T01:45:32.149Z,6.90
2017-06-25T01:48:00.230Z,7.57
2017-06-25T01:50:28.321Z,8.13
2017-06-25T01:52:56.415Z,7.80
2017-06-25T01:55:24.495Z,7.07
2017-06-25T01:57:52.571Z,7.37
2017-06-25T02:00:20.664Z,7.53
2017-06-25T02:02:48.746Z,7.27
2017-06-25T02:05:16.822Z,6.67
2017-06-25T02:07:44.900Z,7.10
2017-06-25T02:10:12.990Z,6.97
2017-06-25T02:12:41.070Z,6.50
2017-06-25T02:15:09.151Z,7.10
2017-06-25T02:17:37.238Z,6.70
2017-06-25T02:20:05.318Z,7.50
2017-06-25T02:22:33.401Z,7.47
2017-06-25T02:25:01.478Z,6.67
2017-06-25T02:27:29.580Z,6.20
2017-06-25T02:29:57.871Z,6.90
2017-06-25T02:32:25.947Z,6.90
2017-06-25T02:34:54.026Z,7.60
2017-06-25T02:37:22.119Z,5.80
2017-06-25T02:39:50.200Z,7.17
2017-06-25T02:42:18.274Z,6.67
2017-06-25T02:44:46.373Z,6.37
2017-06-25T02:47:14.450Z,5.93
2017-06-25T02:49:42.537Z,6.23
2017-06-25T02:52:10.619Z,5.90
2017-06-25T02:54:38.704Z,5.90
2017-06-25T02:57:06.803Z,5.83
2017-06-25T02:59:34.899Z,6.23
2017-06-25T03:02:02.966Z,5.90
2017-06-25T03:04:31.044Z,6.30
2017-06-25T03:06:59.135Z,6.20
2017-06-25T03:09:38.923Z,5.47
2017-06-25T03:12:07.004Z,6.07
2017-06-25T03:14:35.094Z,6.37
2017-06-25T03:17:03.175Z,5.90
2017-06-25T03:19:31.255Z,6.47
2017-06-25T03:21:59.360Z,6.30
2017-06-25T03:24:27.447Z,6.00
2017-06-25T03:26:55.529Z,6.80
2017-06-25T03:29:23.612Z,7.50
2017-06-25T03:31:51.693Z,6.90
2017-06-25T03:34:19.779Z,7.33
2017-06-25T03:36:48.639Z,7.17
2017-06-25T03:39:16.725Z,7.30
2017-06-25T03:41:44.807Z,7.93
2017-06-25T03:44:12.882Z,5.80
2017-06-25T03:46:40.958Z,6.77
2017-06-25T03:49:09.063Z,6.27
2017-06-25T03:51:37.135Z,6.13
2017-06-25T03:54:05.216Z,5.53
2017-06-25T03:56:33.301Z,5.40
2017-06-25T03:59:01.383Z,5.60
2017-06-25T04:01:29.473Z,4.90
2017-06-25T04:03:57.544Z,5.27
2017-06-25T04:06:25.635Z,5.20
2017-06-25T04:08:53.708Z,4.50
2017-06-25T04:11:21.807Z,5.07
2017-06-25T04:13:49.894Z,5.60
2017-06-25T04:16:17.975Z,4.87
2017-06-25T04:18:46.056Z,4.80
2017-06-25T04:21:14.133Z,4.27
2017-06-25T04:23:42.207Z,4.87
2017-06-25T04:26:10.279Z,5.20
2017-06-25T04:28:38.368Z,4.53
2017-06-25T04:31:06.459Z,3.97
2017-06-25T04:33:34.537Z,4.80
2017-06-25T04:36:02.626Z,4.53
2017-06-25T04:38:30.739Z,4.27
2017-06-25T04:40:58.813Z,4.13
2017-06-25T04:43:26.879Z,4.70
2017-06-25T04:45:54.959Z,4.60
2017-06-25T04:48:23.031Z,4.30
2017-06-25T04:50:51.106Z,3.80
2017-06-25T04:53:19.193Z,4.77
2017-06-25T04:55:47.276Z,4.30
2017-06-25T04:58:15.348Z,4.80
2017-06-25T05:00:43.443Z,4.33
2017-06-25T05:03:11.534Z,4.50
2017-06-25T05:05:39.605Z,4.30
2017-06-25T05:08:07.691Z,3.97
2017-06-25T05:10:35.766Z,4.27
2017-06-25T05:13:03.858Z,3.80
2017-06-25T05:15:31.945Z,4.03
2017-06-25T05:18:00.033Z,4.27
2017-06-25T05:20:28.109Z,4.20
2017-06-25T05:22:56.205Z,4.40
2017-06-25T05:25:24.276Z,4.73
2017-06-25T05:27:52.353Z,3.83
2017-06-25T05:30:20.443Z,4.80
2017-06-25T05:32:48.527Z,4.20
2017-06-25T05:35:16.611Z,4.43
2017-06-25T05:37:44.679Z,4.40
2017-06-25T05:40:12.779Z,4.60
2017-06-25T05:42:40.863Z,5.43
2017-06-25T05:45:08.961Z,4.60
2017-06-25T05:47:37.037Z,4.70
2017-06-25T05:50:05.132Z,4.07
2017-06-25T05:52:33.212Z,5.20
2017-06-25T05:55:01.293Z,4.50
2017-06-25T05:57:29.375Z,4.40
2017-06-25T05:59:57.666Z,4.47
2017-06-25T06:02:25.755Z,5.20
2017-06-25T06:04:53.836Z,4.60
2017-06-25T06:07:21.918Z,4.13
2017-06-25T06:09:49.999Z,4.60
2017-06-25T06:12:18.092Z,4.53
2017-06-25T06:14:46.169Z,4.40
2017-06-25T06:17:14.263Z,4.50
2017-06-25T06:19:42.342Z,4.73
2017-06-25T06:22:10.425Z,4.27
2017-06-25T06:24:38.503Z,4.13
2017-06-25T06:27:06.591Z,3.97
2017-06-25T06:29:34.673Z,4.40
2017-06-25T06:32:02.755Z,4.40
2017-06-25T06:34:30.841Z,4.23
2017-06-25T06:36:58.926Z,4.50
2017-06-25T06:39:27.021Z,4.30
2017-06-25T06:41:55.099Z,4.80
2017-06-25T06:44:23.181Z,4.60
2017-06-25T06:46:51.265Z,4.70
2017-06-25T06:49:19.335Z,4.43
2017-06-25T06:51:47.420Z,5.00
2017-06-25T06:54:15.507Z,4.70
2017-06-25T06:56:43.611Z,4.20
2017-06-25T06:59:11.704Z,4.33
2017-06-25T07:01:39.783Z,4.87
2017-06-25T07:04:07.859Z,4.77
2017-06-25T07:06:35.944Z,4.37
2017-06-25T07:09:04.034Z,4.57
2017-06-25T07:11:32.106Z,5.07
2017-06-25T07:14:00.184Z,4.47
2017-06-25T07:16:28.264Z,4.70
2017-06-25T07:18:56.347Z,4.93
2017-06-25T07:21:24.429Z,5.20
2017-06-25T07:23:52.519Z,4.90
2017-06-25T07:26:20.602Z,4.90
2017-06-25T07:28:48.701Z,4.53
2017-06-25T07:31:16.779Z,5.60
2017-06-25T07:33:44.866Z,5.30
2017-06-25T07:36:12.979Z,5.20
2017-06-25T07:38:41.048Z,5.07
2017-06-25T07:41:09.127Z,5.73
2017-06-25T07:43:37.215Z,5.10
2017-06-25T07:46:05.295Z,4.70
2017-06-25T07:48:33.384Z,5.50
2017-06-25T07:51:01.484Z,5.30
2017-06-25T07:53:29.574Z,5.30
2017-06-25T07:55:57.658Z,5.27
2017-06-25T07:58:25.754Z,5.00
2017-06-25T08:00:53.830Z,4.53
2017-06-25T08:03:21.910Z,4.80
2017-06-25T08:05:49.992Z,5.63
2017-06-25T08:08:18.072Z,4.67
2017-06-25T08:10:46.147Z,5.47
2017-06-25T08:13:14.253Z,4.50
2017-06-25T08:15:42.324Z,4.70
2017-06-25T08:18:10.404Z,4.43
2017-06-25T08:20:38.487Z,4.13
2017-06-25T08:23:06.567Z,4.03
2017-06-25T08:25:34.656Z,4.37
2017-06-25T08:28:02.736Z,4.17
2017-06-25T08:30:30.831Z,4.10
2017-06-25T08:32:58.910Z,4.40
2017-06-25T08:35:27.020Z,3.93
2017-06-25T08:37:55.101Z,4.20
2017-06-25T08:40:23.181Z,4.17
2017-06-25T08:42:51.275Z,4.00
2017-06-25T08:45:19.348Z,4.13
2017-06-25T08:47:47.423Z,3.53
2017-06-25T08:50:16.175Z,4.30
2017-06-25T08:52:44.264Z,3.80
2017-06-25T08:55:12.337Z,3.40
2017-06-25T08:57:40.410Z,3.83
2017-06-25T09:00:08.503Z,2.93
2017-06-25T09:02:36.572Z,4.03
2017-06-25T09:05:04.652Z,3.70
2017-06-25T09:07:32.729Z,3.60
2017-06-25T09:10:00.827Z,3.50
2017-06-25T09:12:28.901Z,3.17
2017-06-25T09:14:56.981Z,3.60
2017-06-25T09:17:25.081Z,3.73
2017-06-25T09:19:53.152Z,3.50
2017-06-25T09:22:21.248Z,3.27
2017-06-25T09:24:49.323Z,3.43
2017-06-25T09:27:17.417Z,2.70
2017-06-25T09:29:45.495Z,3.10
2017-06-25T09:32:13.600Z,2.90
2017-06-25T09:34:41.676Z,2.80
2017-06-25T09:37:09.752Z,3.07
2017-06-25T09:39:37.848Z,2.97
2017-06-25T09:42:05.933Z,3.33
2017-06-25T09:44:34.026Z,3.30
2017-06-25T09:47:02.094Z,3.23
2017-06-25T09:49:30.181Z,3.07
2017-06-25T09:51:58.268Z,3.40
2017-06-25T09:54:26.363Z,3.50
2017-06-25T09:56:54.435Z,3.57
2017-06-25T09:59:22.521Z,3.30
2017-06-25T10:01:50.609Z,3.27
2017-06-25T10:04:18.686Z,2.90
2017-06-25T10:06:46.775Z,2.80
2017-06-25T10:09:14.847Z,3.40
2017-06-25T10:11:42.936Z,2.97
2017-06-25T10:14:11.033Z,3.47
2017-06-25T10:16:40.018Z,3.07
2017-06-25T10:19:13.635Z,3.17
2017-06-25T10:21:41.734Z,3.20
2017-06-25T10:24:09.806Z,3.00
2017-06-25T10:26:37.896Z,3.00
2017-06-25T10:29:05.975Z,3.00
2017-06-25T10:31:34.054Z,3.37
2017-06-25T10:34:02.148Z,2.90
2017-06-25T10:36:30.219Z,3.10
2017-06-25T10:38:58.306Z,2.87
2017-06-25T10:41:26.386Z,2.67
2017-06-25T10:43:54.486Z,2.40
2017-06-25T10:46:22.568Z,2.23
2017-06-25T10:48:50.648Z,2.20
2017-06-25T10:51:18.733Z,2.23
2017-06-25T10:53:46.806Z,3.20
2017-06-25T10:56:14.896Z,2.20
2017-06-25T10:58:42.966Z,2.90
2017-06-25T11:01:11.057Z,2.20
2017-06-25T11:03:39.139Z,2.37
2017-06-25T11:06:07.391Z,2.60
2017-06-25T11:08:35.483Z,3.53
2017-06-25T11:11:03.550Z,3.80
2017-06-25T11:13:31.651Z,2.53
2017-06-25T11:15:59.722Z,2.50
2017-06-25T11:18:27.806Z,2.93
2017-06-25T11:20:55.897Z,2.80
2017-06-25T11:23:23.993Z,3.43
2017-06-25T11:25:52.080Z,3.43
2017-06-25T11:28:20.410Z,3.00
2017-06-25T11:30:48.484Z,3.43
2017-06-25T11:33:16.581Z,3.30
2017-06-25T11:35:44.666Z,3.10
2017-06-25T11:38:12.739Z,3.20
2017-06-25T11:40:40.819Z,2.80
2017-06-25T11:43:08.905Z,2.67
2017-06-25T11:45:37.015Z,2.60
2017-06-25T11:48:05.075Z,2.80
2017-06-25T11:50:33.167Z,2.93
2017-06-25T11:53:01.242Z,3.20
2017-06-25T11:55:29.320Z,3.10
2017-06-25T11:57:57.407Z,2.53
2017-06-25T12:00:25.483Z,2.47
2017-06-25T12:02:53.572Z,2.83
2017-06-25T12:05:21.651Z,2.60
2017-06-25T12:07:49.740Z,2.47
2017-06-25T12:10:17.809Z,2.40
2017-06-25T12:12:45.912Z,2.40
2017-06-25T12:15:13.988Z,2.27
2017-06-25T12:17:42.064Z,2.30
2017-06-25T12:20:10.155Z,2.80
2017-06-25T12:22:38.240Z,2.17
2017-06-25T12:25:06.328Z,2.20
2017-06-25T12:27:34.403Z,2.80
2017-06-25T12:30:02.483Z,2.20
2017-06-25T12:32:30.567Z,2.50
2017-06-25T12:34:58.671Z,2.17
2017-06-25T12:37:26.751Z,2.30
2017-06-25T12:39:54.835Z,2.30
2017-06-25T12:42:22.931Z,2.90
2017-06-25T12:44:51.002Z,2.37
2017-06-25T12:47:19.075Z,2.47
2017-06-25T12:49:47.155Z,2.37
2017-06-25T12:52:15.248Z,2.50
2017-06-25T12:54:43.331Z,2.37
2017-06-25T12:57:11.431Z,2.17
2017-06-25T12:59:39.508Z,2.40
2017-06-25T13:02:07.593Z,2.30
2017-06-25T13:04:35.677Z,2.43
2017-06-25T13:07:03.748Z,2.77
2017-06-25T13:09:31.832Z,2.53
2017-06-25T13:11:59.940Z,2.17
2017-06-25T13:14:28.020Z,2.50
2017-06-25T13:16:56.106Z,2.30
2017-06-25T13:19:24.399Z,2.77
2017-06-25T13:21:52.488Z,2.80
2017-06-25T13:24:20.573Z,3.10
2017-06-25T13:26:48.655Z,3.20
2017-06-25T13:29:16.739Z,3.60
2017-06-25T13:31:44.821Z,2.90
2017-06-25T13:34:12.888Z,3.10
2017-06-25T13:36:40.986Z,3.03
2017-06-25T13:39:09.059Z,3.00
2017-06-25T13:41:37.140Z,3.17
2017-06-25T13:44:05.218Z,2.80
2017-06-25T13:46:33.304Z,2.90
2017-06-25T13:49:01.387Z,2.83
2017-06-25T13:51:29.471Z,2.77
2017-06-25T13:53:57.583Z,3.20
2017-06-25T13:56:25.658Z,2.70
2017-06-25T13:58:53.750Z,2.90
2017-06-25T14:01:21.835Z,2.60
2017-06-25T14:03:49.907Z,2.60
2017-06-25T14:06:17.986Z,2.60
2017-06-25T14:08:46.067Z,3.10
2017-06-25T14:11:14.196Z,2.40
2017-06-25T14:13:42.280Z,2.40
2017-06-25T14:16:10.535Z,2.63
2017-06-25T14:18:38.881Z,2.70
2017-06-25T14:21:07.096Z,2.90
2017-06-25T14:23:35.185Z,2.40
2017-06-25T14:26:03.268Z,2.77
2017-06-25T14:28:31.362Z,2.40
2017-06-25T14:30:59.453Z,2.60
2017-06-25T14:33:27.543Z,2.97
2017-06-25T14:35:55.628Z,3.37
2017-06-25T14:38:23.715Z,2.97
2017-06-25T14:40:51.790Z,2.83
2017-06-25T14:43:19.868Z,3.10
2017-06-25T14:45:47.957Z,3.03
2017-06-25T14:48:16.027Z,3.20
2017-06-25T14:50:44.111Z,3.07
2017-06-25T14:53:12.188Z,2.80
2017-06-25T14:55:40.275Z,3.63
2017-06-25T14:58:08.360Z,2.93
2017-06-25T15:00:36.439Z,3.53
2017-06-25T15:03:04.521Z,2.60
2017-06-25T15:05:32.603Z,2.90
2017-06-25T15:08:00.690Z,2.93
2017-06-25T15:10:28.769Z,2.90
2017-06-25T15:12:56.852Z,2.87
2017-06-25T15:15:24.941Z,2.90
2017-06-25T15:17:53.022Z,2.90
2017-06-25T15:20:21.099Z,3.83
2017-06-25T15:22:49.178Z,2.70
2017-06-25T15:25:17.268Z,2.97
2017-06-25T15:27:45.349Z,2.90
2017-06-25T15:30:13.436Z,2.70
2017-06-25T15:32:41.510Z,3.07
2017-06-25T15:35:09.596Z,2.93
2017-06-25T15:37:37.672Z,2.43
2017-06-25T15:40:05.755Z,2.37
2017-06-25T15:42:33.839Z,2.60
2017-06-25T15:45:01.915Z,2.70
2017-06-25T15:47:29.996Z,2.73
2017-06-25T15:49:58.287Z,2.70
2017-06-25T15:52:26.380Z,2.83
2017-06-25T15:54:54.447Z,2.70
2017-06-25T15:57:22.547Z,2.60
2017-06-25T15:59:50.631Z,3.13
2017-06-25T16:02:18.715Z,2.93
2017-06-25T16:04:46.807Z,2.70
2017-06-25T16:07:14.904Z,2.40
2017-06-25T16:09:42.992Z,2.70
2017-06-25T16:12:11.079Z,2.57
2017-06-25T16:14:39.172Z,3.10
2017-06-25T16:17:07.259Z,4.30
2017-06-25T16:19:35.351Z,2.80
2017-06-25T16:22:03.426Z,2.70
2017-06-25T16:24:31.508Z,3.03
2017-06-25T16:26:59.587Z,3.30
2017-06-25T16:29:27.681Z,3.07
2017-06-25T16:31:55.763Z,3.00
2017-06-25T16:34:23.831Z,2.90
2017-06-25T16:36:51.924Z,2.90
2017-06-25T16:39:19.991Z,3.20
2017-06-25T16:41:48.074Z,3.40
2017-06-25T16:44:16.163Z,3.37
2017-06-25T16:46:44.229Z,2.47
2017-06-25T16:49:12.313Z,3.00
2017-06-25T16:51:40.383Z,2.93
2017-06-25T16:54:08.490Z,3.30
2017-06-25T16:56:36.720Z,3.20
2017-06-25T16:59:04.875Z,2.90
2017-06-25T17:01:32.958Z,3.17
2017-06-25T17:04:01.152Z,3.30
2017-06-25T17:06:29.415Z,3.00
2017-06-25T17:09:20.398Z,2.80
2017-06-25T17:11:48.689Z,3.40
2017-06-25T17:14:16.755Z,3.20
2017-06-25T17:16:44.834Z,2.80
2017-06-25T17:19:12.918Z,3.17
2017-06-25T17:21:40.994Z,3.40
2017-06-25T17:24:09.092Z,3.17
2017-06-25T17:26:37.176Z,3.03
2017-06-25T17:29:05.254Z,3.20
2017-06-25T17:31:33.334Z,3.30
2017-06-25T17:34:01.420Z,3.80
2017-06-25T17:36:29.499Z,3.50
2017-06-25T17:38:57.599Z,3.10
2017-06-25T17:41:25.670Z,3.57
2017-06-25T17:43:53.759Z,3.67
2017-06-25T17:46:21.851Z,3.50
2017-06-25T17:48:49.925Z,3.50
2017-06-25T17:51:18.015Z,4.17
2017-06-25T17:53:46.091Z,3.57
2017-06-25T17:56:14.172Z,4.00
2017-06-25T17:58:42.242Z,3.83
2017-06-25T18:01:10.335Z,4.20
2017-06-25T18:03:38.406Z,4.17
2017-06-25T18:06:06.491Z,3.83
2017-06-25T18:08:34.570Z,4.20
2017-06-25T18:11:02.647Z,3.30
2017-06-25T18:13:30.727Z,3.23
2017-06-25T18:15:58.807Z,3.23
2017-06-25T18:18:26.891Z,2.97
2017-06-25T18:20:54.974Z,2.93
2017-06-25T18:23:23.059Z,4.00
2017-06-25T18:25:51.131Z,3.17
2017-06-25T18:28:19.237Z,3.47
2017-06-25T18:30:47.306Z,3.57
2017-06-25T18:33:15.383Z,3.57
2017-06-25T18:35:43.469Z,3.40
2017-06-25T18:38:11.547Z,3.13
2017-06-25T18:40:39.631Z,4.83
2017-06-25T18:43:07.920Z,3.23
2017-06-25T18:45:36.006Z,3.43
2017-06-25T18:48:04.087Z,3.30
2017-06-25T18:50:32.173Z,3.37
2017-06-25T18:53:00.244Z,3.73
2017-06-25T18:55:28.331Z,3.27
2017-06-25T18:57:56.403Z,3.00
2017-06-25T19:00:24.480Z,3.60
2017-06-25T19:02:52.567Z,3.23
2017-06-25T19:05:20.647Z,3.40
2017-06-25T19:07:48.713Z,3.70
2017-06-25T19:10:16.803Z,3.37
2017-06-25T19:12:44.878Z,3.60
2017-06-25T19:15:12.950Z,3.40
2017-06-25T19:17:41.047Z,3.60
2017-06-25T19:20:09.131Z,3.40
2017-06-25T19:22:37.207Z,3.70
2017-06-25T19:25:05.284Z,3.80
2017-06-25T19:27:33.359Z,3.13
2017-06-25T19:30:01.439Z,3.70
2017-06-25T19:32:29.515Z,3.30
2017-06-25T19:34:57.591Z,3.90
2017-06-25T19:37:25.681Z,3.33
2017-06-25T19:39:53.764Z,3.67
2017-06-25T19:42:21.842Z,3.63
2017-06-25T19:44:49.935Z,3.27
2017-06-25T19:47:18.024Z,3.47
2017-06-25T19:49:46.106Z,4.40
2017-06-25T19:52:14.186Z,3.77
2017-06-25T19:54:42.270Z,3.80
2017-06-25T19:57:10.348Z,4.07
2017-06-25T19:59:38.439Z,3.50
2017-06-25T20:02:06.524Z,3.70
2017-06-25T20:04:34.597Z,3.93
2017-06-25T20:07:02.675Z,3.60
2017-06-25T20:09:30.750Z,4.17
2017-06-25T20:11:58.836Z,3.30
2017-06-25T20:14:26.903Z,4.37
2017-06-25T20:16:54.993Z,3.37
2017-06-25T20:19:23.064Z,3.90
2017-06-25T20:21:51.145Z,3.33
2017-06-25T20:24:19.215Z,3.80
2017-06-25T20:26:47.299Z,3.60
2017-06-25T20:29:15.391Z,4.40
2017-06-25T20:31:43.472Z,3.60
2017-06-25T20:34:11.574Z,4.00
2017-06-25T20:36:39.691Z,3.80
2017-06-25T20:39:07.786Z,3.97
2017-06-25T20:41:35.872Z,3.47
2017-06-25T20:44:03.950Z,3.40
2017-06-25T20:46:32.027Z,3.53
2017-06-25T20:49:00.112Z,3.33
2017-06-25T20:51:28.195Z,4.17
2017-06-25T20:53:56.279Z,3.77
2017-06-25T20:56:24.359Z,3.60
2017-06-25T20:58:52.430Z,3.83
2017-06-25T21:01:20.507Z,3.73
2017-06-25T21:03:48.590Z,3.53
2017-06-25T21:06:16.679Z,4.10
2017-06-25T21:08:44.759Z,3.73
2017-06-25T21:11:12.860Z,4.23
2017-06-25T21:13:41.724Z,3.50
2017-06-25T21:16:09.811Z,3.50
2017-06-25T21:18:37.901Z,3.70
2017-06-25T21:21:05.976Z,3.67
2017-06-25T21:23:34.053Z,3.63
2017-06-25T21:26:02.133Z,3.60
2017-06-25T21:28:30.219Z,3.70
2017-06-25T21:30:58.314Z,3.50
2017-06-25T21:33:26.401Z,3.57
2017-06-25T21:35:54.472Z,3.40
2017-06-25T21:38:22.557Z,3.73
2017-06-25T21:40:50.635Z,3.87
2017-06-25T21:43:18.735Z,3.60
2017-06-25T21:45:46.819Z,3.57
2017-06-25T21:48:15.113Z,2.90
2017-06-25T21:50:43.189Z,3.53
2017-06-25T21:53:11.264Z,3.20
2017-06-25T21:55:39.351Z,3.20
2017-06-25T21:58:07.440Z,4.00
2017-06-25T22:00:35.519Z,3.30
2017-06-25T22:03:03.591Z,3.80
2017-06-25T22:05:31.695Z,3.77
2017-06-25T22:08:00.682Z,3.87
2017-06-25T22:10:28.778Z,4.23
2017-06-25T22:12:56.852Z,3.30
2017-06-25T22:15:24.933Z,3.60
2017-06-25T22:17:53.028Z,3.70
2017-06-25T22:20:21.112Z,3.90
2017-06-25T22:22:49.194Z,3.87
2017-06-25T22:25:17.275Z,3.40
2017-06-25T22:27:45.363Z,3.60
2017-06-25T22:30:13.435Z,3.47
2017-06-25T22:32:41.518Z,3.67
2017-06-25T22:35:09.598Z,3.67
2017-06-25T22:37:37.689Z,3.80
2017-06-25T22:40:05.766Z,3.50
2017-06-25T22:42:33.842Z,3.40
2017-06-25T22:45:01.928Z,3.90
2017-06-25T22:47:30.002Z,4.00
2017-06-25T22:49:58.082Z,3.60
2017-06-25T22:52:26.173Z,3.20
2017-06-25T22:54:54.254Z,3.40
2017-06-25T22:57:22.335Z,3.27
2017-06-25T22:59:50.412Z,3.70
2017-06-25T23:02:18.491Z,3.80
2017-06-25T23:04:46.583Z,3.20
2017-06-25T23:07:14.659Z,3.60
2017-06-25T23:09:42.735Z,3.53
2017-06-25T23:12:10.831Z,3.50
2017-06-25T23:14:38.914Z,3.70
2017-06-25T23:17:07.003Z,3.40
2017-06-25T23:19:35.078Z,3.57
2017-06-25T23:22:03.167Z,3.13
2017-06-25T23:24:31.244Z,3.40
2017-06-25T23:26:59.344Z,3.70
2017-06-25T23:29:27.534Z,3.00
2017-06-25T23:31:55.811Z,3.70
2017-06-25T23:34:23.895Z,3.73
2017-06-25T23:36:52.043Z,3.43
2017-06-25T23:39:20.137Z,3.23
2017-06-25T23:41:49.103Z,4.13
2017-06-25T23:44:17.192Z,4.30
2017-06-25T23:46:45.271Z,3.40
2017-06-25T23:49:13.366Z,3.70
2017-06-25T23:51:41.440Z,3.70
2017-06-25T23:54:09.533Z,3.60
2017-06-25T23:56:37.616Z,3.50
2017-06-25T23:59:05.697Z,3.27
